createdAt,value
2018-09-29T00:00:20.134Z,1018.15
2018-09-29T00:01:20.119Z,1018.16
2018-09-29T00:02:20.105Z,1018.15
2018-09-29T00:03:20.195Z,1018.14
2018-09-29T00:04:20.078Z,1018.06
2018-09-29T00:05:20.093Z,1018.07
2018-09-29T00:06:20.073Z,1018.04
2018-09-29T00:07:20.044Z,1018.04
2018-09-29T00:08:20.040Z,1018.09
2018-09-29T00:09:20.032Z,1018.07
2018-09-29T00:10:20.092Z,1018.10
2018-09-29T00:11:20.002Z,1018.06
2018-09-29T00:12:19.987Z,1018.12
2018-09-29T00:13:19.980Z,1018.11
2018-09-29T00:14:19.966Z,1018.17
2018-09-29T00:15:19.961Z,1018.15
2018-09-29T00:16:20.010Z,1018.18
2018-09-29T00:17:19.930Z,1018.16
2018-09-29T00:18:19.921Z,1018.21
2018-09-29T00:19:19.904Z,1018.22
2018-09-29T00:20:19.901Z,1018.15
2018-09-29T00:21:19.881Z,1018.17
2018-09-29T00:22:19.908Z,1018.22
2018-09-29T00:23:19.862Z,1018.18
2018-09-29T00:24:19.851Z,1018.17
2018-09-29T00:25:19.837Z,1018.12
2018-09-29T00:26:19.838Z,1018.16
2018-09-29T00:27:19.813Z,1018.15
2018-09-29T00:28:19.834Z,1018.17
2018-09-29T00:29:19.826Z,1018.20
2018-09-29T00:30:19.775Z,1018.18
2018-09-29T00:31:19.763Z,1018.21
2018-09-29T00:32:19.761Z,1018.08
2018-09-29T00:33:19.751Z,1018.15
2018-09-29T00:34:19.761Z,1018.19
2018-09-29T00:35:19.729Z,1018.22
2018-09-29T00:36:19.707Z,1018.20
2018-09-29T00:37:19.698Z,1018.25
2018-09-29T00:38:19.688Z,1018.30
2018-09-29T00:39:19.679Z,1018.32
2018-09-29T00:40:19.692Z,1018.29
2018-09-29T00:41:19.649Z,1018.26
2018-09-29T00:42:19.646Z,1018.30
2018-09-29T00:43:19.627Z,1018.25
2018-09-29T00:44:19.624Z,1018.27
2018-09-29T00:45:19.608Z,1018.29
2018-09-29T00:46:19.626Z,1018.28
2018-09-29T00:47:19.583Z,1018.24
2018-09-29T00:48:19.576Z,1018.25
2018-09-29T00:49:19.565Z,1018.25
2018-09-29T00:50:19.546Z,1018.22
2018-09-29T00:51:19.537Z,1018.26
2018-09-29T00:52:19.548Z,1018.22
2018-09-29T00:53:19.516Z,1018.20
2018-09-29T00:54:19.507Z,1018.16
2018-09-29T00:55:19.491Z,1018.15
2018-09-29T00:56:19.482Z,1018.15
2018-09-29T00:57:19.509Z,1018.14
2018-09-29T00:58:19.453Z,1018.12
2018-09-29T00:59:19.449Z,1018.17
2018-09-29T01:00:19.431Z,1018.14
2018-09-29T01:01:19.422Z,1018.15
2018-09-29T01:02:19.415Z,1018.10
2018-09-29T01:03:19.419Z,1018.11
2018-09-29T01:04:19.394Z,1018.06
2018-09-29T01:05:19.379Z,1018.06
2018-09-29T01:06:19.363Z,1018.04
2018-09-29T01:07:19.358Z,1018.03
2018-09-29T01:08:19.372Z,1018.08
2018-09-29T01:09:19.335Z,1018.05
2018-09-29T01:10:19.322Z,1018.06
2018-09-29T01:11:19.309Z,1018.08
2018-09-29T01:12:19.294Z,1018.12
2018-09-29T01:13:19.287Z,1018.15
2018-09-29T01:14:19.303Z,1018.13
2018-09-29T01:15:19.264Z,1018.16
2018-09-29T01:16:19.249Z,1018.15
2018-09-29T01:17:19.241Z,1018.13
2018-09-29T01:18:19.227Z,1018.05
2018-09-29T01:19:19.215Z,1018.03
2018-09-29T01:20:19.235Z,1018.03
2018-09-29T01:21:19.191Z,1018.03
2018-09-29T01:22:19.184Z,1017.97
2018-09-29T01:23:19.172Z,1018.05
2018-09-29T01:24:19.164Z,1018.03
2018-09-29T01:25:19.149Z,1018.07
2018-09-29T01:26:19.165Z,1018.09
2018-09-29T01:27:19.132Z,1018.08
2018-09-29T01:28:19.108Z,1018.08
2018-09-29T01:29:19.107Z,1018.09
2018-09-29T01:30:19.091Z,1018.11
2018-09-29T01:31:19.078Z,1018.09
2018-09-29T01:32:19.096Z,1018.08
2018-09-29T01:33:19.055Z,1018.04
2018-09-29T01:34:19.048Z,1018.01
2018-09-29T01:35:19.028Z,1018.05
2018-09-29T01:36:19.030Z,1018.05
2018-09-29T01:37:19.006Z,1017.99
2018-09-29T01:38:19.030Z,1017.95
2018-09-29T01:39:18.992Z,1017.95
2018-09-29T01:40:18.977Z,1017.91
2018-09-29T01:41:18.964Z,1017.92
2018-09-29T01:42:18.955Z,1017.84
2018-09-29T01:43:18.944Z,1017.93
2018-09-29T01:44:18.961Z,1017.88
2018-09-29T01:45:18.914Z,1017.87
2018-09-29T01:46:18.913Z,1017.90
2018-09-29T01:47:18.891Z,1017.92
2018-09-29T01:48:18.890Z,1017.90
2018-09-29T01:49:18.873Z,1017.96
2018-09-29T01:50:18.889Z,1017.95
2018-09-29T01:51:18.846Z,1017.97
2018-09-29T01:52:18.843Z,1018.01
2018-09-29T01:53:18.831Z,1018.06
2018-09-29T01:54:18.812Z,1018.03
2018-09-29T01:55:18.800Z,1018.04
2018-09-29T01:56:18.827Z,1018.05
2018-09-29T01:57:18.777Z,1018.02
2018-09-29T01:58:18.767Z,1018.06
2018-09-29T01:59:18.763Z,1017.99
2018-09-29T02:00:18.749Z,1018.07
2018-09-29T02:01:18.742Z,1018.09
2018-09-29T02:02:18.750Z,1018.05
2018-09-29T02:03:18.710Z,1018.06
2018-09-29T02:04:18.703Z,1018.09
2018-09-29T02:05:18.692Z,1018.03
2018-09-29T02:06:18.674Z,1018.02
2018-09-29T02:07:18.661Z,1017.99
2018-09-29T02:08:18.680Z,1017.96
2018-09-29T02:09:18.644Z,1017.98
2018-09-29T02:10:18.633Z,1017.97
2018-09-29T02:11:18.625Z,1017.99
2018-09-29T02:12:18.608Z,1018.00
2018-09-29T02:13:18.617Z,1017.93
2018-09-29T02:14:18.581Z,1018.01
2018-09-29T02:15:18.570Z,1017.97
2018-09-29T02:16:18.561Z,1017.95
2018-09-29T02:17:18.557Z,1017.88
2018-09-29T02:18:18.567Z,1017.90
2018-09-29T02:19:18.529Z,1017.93
2018-09-29T02:20:18.514Z,1017.90
2018-09-29T02:21:18.508Z,1017.87
2018-09-29T02:22:18.493Z,1017.90
2018-09-29T02:23:18.492Z,1017.87
2018-09-29T02:24:18.495Z,1017.84
2018-09-29T02:25:18.464Z,1017.86
2018-09-29T02:26:18.444Z,1017.93
2018-09-29T02:27:18.438Z,1017.97
2018-09-29T02:28:18.429Z,1017.91
2018-09-29T02:29:18.416Z,1017.95
2018-09-29T02:30:18.432Z,1017.97
2018-09-29T02:31:18.397Z,1017.96
2018-09-29T02:32:18.376Z,1017.91
2018-09-29T02:33:18.371Z,1017.92
2018-09-29T02:34:18.357Z,1017.90
2018-09-29T02:35:18.343Z,1017.97
2018-09-29T02:36:18.359Z,1017.98
2018-09-29T02:37:18.325Z,1017.95
2018-09-29T02:38:18.312Z,1017.96
2018-09-29T02:39:18.295Z,1017.94
2018-09-29T02:40:18.294Z,1017.82
2018-09-29T02:41:18.299Z,1017.84
2018-09-29T02:42:18.270Z,1017.80
2018-09-29T02:43:18.253Z,1017.82
2018-09-29T02:44:18.244Z,1017.75
2018-09-29T02:45:18.235Z,1017.82
2018-09-29T02:46:18.214Z,1017.78
2018-09-29T02:47:18.232Z,1017.82
2018-09-29T02:48:18.201Z,1017.80
2018-09-29T02:49:18.187Z,1017.75
2018-09-29T02:50:18.217Z,1017.74
2018-09-29T02:51:18.158Z,1017.79
2018-09-29T02:52:18.155Z,1017.80
2018-09-29T02:53:18.171Z,1017.86
2018-09-29T02:54:18.126Z,1017.83
2018-09-29T02:55:18.115Z,1017.82
2018-09-29T02:56:18.107Z,1017.87
2018-09-29T02:57:18.103Z,1017.87
2018-09-29T02:58:18.081Z,1017.84
2018-09-29T02:59:18.105Z,1017.84
2018-09-29T03:00:18.065Z,1017.91
2018-09-29T03:01:18.055Z,1017.83
2018-09-29T03:02:18.040Z,1017.88
2018-09-29T03:03:18.030Z,1017.86
2018-09-29T03:04:18.008Z,1017.90
2018-09-29T03:05:18.030Z,1017.90
2018-09-29T03:06:17.992Z,1017.89
2018-09-29T03:07:18.082Z,1017.88
2018-09-29T03:08:17.968Z,1017.88
2018-09-29T03:09:17.961Z,1017.86
2018-09-29T03:10:17.941Z,1017.88
2018-09-29T03:11:17.958Z,1017.85
2018-09-29T03:12:17.927Z,1017.80
2018-09-29T03:13:17.914Z,1017.85
2018-09-29T03:14:17.941Z,1017.86
2018-09-29T03:15:17.891Z,1017.83
2018-09-29T03:16:17.877Z,1017.88
2018-09-29T03:17:17.890Z,1017.87
2018-09-29T03:18:17.853Z,1017.87
2018-09-29T03:19:17.873Z,1017.85
2018-09-29T03:20:17.829Z,1017.84
2018-09-29T03:21:17.814Z,1017.89
2018-09-29T03:22:17.842Z,1017.81
2018-09-29T03:23:17.868Z,1017.82
2018-09-29T03:24:17.782Z,1017.89
2018-09-29T03:25:17.776Z,1017.89
2018-09-29T03:26:17.760Z,1017.87
2018-09-29T03:27:17.755Z,1017.83
2018-09-29T03:28:17.766Z,1017.88
2018-09-29T03:29:17.731Z,1017.89
2018-09-29T03:30:17.718Z,1017.87
2018-09-29T03:31:17.702Z,1017.87
2018-09-29T03:32:17.689Z,1017.88
2018-09-29T03:33:17.686Z,1017.87
2018-09-29T03:34:17.696Z,1017.80
2018-09-29T03:35:17.654Z,1017.85
2018-09-29T03:36:17.652Z,1017.76
2018-09-29T03:37:17.638Z,1017.81
2018-09-29T03:38:17.622Z,1017.77
2018-09-29T03:39:17.614Z,1017.78
2018-09-29T03:40:17.632Z,1017.78
2018-09-29T03:41:17.586Z,1017.78
2018-09-29T03:42:17.582Z,1017.78
2018-09-29T03:43:17.567Z,1017.86
2018-09-29T03:44:17.556Z,1017.73
2018-09-29T03:45:17.548Z,1017.76
2018-09-29T03:46:17.552Z,1017.77
2018-09-29T03:47:17.524Z,1017.75
2018-09-29T03:48:17.513Z,1017.75
2018-09-29T03:49:17.501Z,1017.73
2018-09-29T03:50:17.484Z,1017.74
2018-09-29T03:51:17.551Z,1017.70
2018-09-29T03:52:17.459Z,1017.74
2018-09-29T03:53:17.456Z,1017.73
2018-09-29T03:54:17.437Z,1017.71
2018-09-29T03:55:17.435Z,1017.73
2018-09-29T03:56:17.412Z,1017.72
2018-09-29T03:57:17.439Z,1017.61
2018-09-29T03:58:17.395Z,1017.70
2018-09-29T03:59:17.379Z,1017.65
2018-09-29T04:00:17.375Z,1017.69
2018-09-29T04:01:17.356Z,1017.71
2018-09-29T04:02:17.353Z,1017.70
2018-09-29T04:03:17.357Z,1017.64
2018-09-29T04:04:17.328Z,1017.66
2018-09-29T04:05:17.318Z,1017.66
2018-09-29T04:06:17.305Z,1017.72
2018-09-29T04:07:17.289Z,1017.76
2018-09-29T04:08:17.309Z,1017.73
2018-09-29T04:09:17.264Z,1017.72
2018-09-29T04:10:17.262Z,1017.75
2018-09-29T04:11:17.242Z,1017.68
2018-09-29T04:12:17.241Z,1017.66
2018-09-29T04:13:17.246Z,1017.69
2018-09-29T04:14:17.216Z,1017.66
2018-09-29T04:15:17.201Z,1017.71
2018-09-29T04:16:17.193Z,1017.75
2018-09-29T04:17:17.209Z,1017.71
2018-09-29T04:18:17.162Z,1017.75
2018-09-29T04:19:17.177Z,1017.73
2018-09-29T04:20:17.144Z,1017.76
2018-09-29T04:21:17.127Z,1017.79
2018-09-29T04:22:17.125Z,1017.75
2018-09-29T04:23:17.128Z,1017.75
2018-09-29T04:24:17.114Z,1017.77
2018-09-29T04:25:17.086Z,1017.77
2018-09-29T04:26:17.079Z,1017.74
2018-09-29T04:27:17.061Z,1017.77
2018-09-29T04:28:17.052Z,1017.78
2018-09-29T04:29:17.066Z,1017.83
2018-09-29T04:30:17.024Z,1017.79
2018-09-29T04:31:17.012Z,1017.76
2018-09-29T04:32:17.014Z,1017.77
2018-09-29T04:33:16.995Z,1017.78
2018-09-29T04:34:17.002Z,1017.77
2018-09-29T04:35:16.969Z,1017.80
2018-09-29T04:36:16.955Z,1017.81
2018-09-29T04:37:16.954Z,1017.80
2018-09-29T04:38:16.931Z,1017.79
2018-09-29T04:39:16.943Z,1017.77
2018-09-29T04:40:16.919Z,1017.82
2018-09-29T04:41:16.905Z,1017.79
2018-09-29T04:42:16.894Z,1017.81
2018-09-29T04:43:16.894Z,1017.83
2018-09-29T04:44:16.888Z,1017.85
2018-09-29T04:45:16.852Z,1017.88
2018-09-29T04:46:16.849Z,1017.86
2018-09-29T04:47:16.834Z,1017.93
2018-09-29T04:48:16.822Z,1017.92
2018-09-29T04:49:16.969Z,1017.92
2018-09-29T04:50:16.795Z,1017.90
2018-09-29T04:51:16.784Z,1017.91
2018-09-29T04:52:16.775Z,1018.00
2018-09-29T04:53:16.788Z,1017.98
2018-09-29T04:54:16.758Z,1017.95
2018-09-29T04:55:16.741Z,1018.01
2018-09-29T04:56:16.732Z,1018.00
2018-09-29T04:57:16.718Z,1017.98
2018-09-29T04:58:16.710Z,1017.99
2018-09-29T04:59:16.723Z,1018.05
2018-09-29T05:00:16.679Z,1017.98
2018-09-29T05:01:16.677Z,1018.02
2018-09-29T05:02:16.658Z,1018.02
2018-09-29T05:03:16.649Z,1018.06
2018-09-29T05:04:16.665Z,1018.06
2018-09-29T05:05:16.623Z,1018.06
2018-09-29T05:06:16.621Z,1018.12
2018-09-29T05:07:16.602Z,1018.12
2018-09-29T05:08:16.595Z,1018.05
2018-09-29T05:09:16.609Z,1018.09
2018-09-29T05:10:16.566Z,1018.07
2018-09-29T05:11:16.555Z,1018.09
2018-09-29T05:12:16.551Z,1018.12
2018-09-29T05:13:16.538Z,1018.02
2018-09-29T05:14:16.545Z,1018.04
2018-09-29T05:15:16.510Z,1018.07
2018-09-29T05:16:16.506Z,1018.06
2018-09-29T05:17:16.492Z,1018.06
2018-09-29T05:18:16.476Z,1018.00
2018-09-29T05:19:16.488Z,1018.04
2018-09-29T05:20:16.459Z,1018.04
2018-09-29T05:21:16.447Z,1018.02
2018-09-29T05:22:16.428Z,1018.05
2018-09-29T05:23:16.431Z,1018.07
2018-09-29T05:24:16.435Z,1018.05
2018-09-29T05:25:16.400Z,1018.08
2018-09-29T05:26:16.387Z,1018.10
2018-09-29T05:27:16.373Z,1018.10
2018-09-29T05:28:16.366Z,1018.06
2018-09-29T05:29:16.381Z,1018.07
2018-09-29T05:30:16.338Z,1018.05
2018-09-29T05:31:16.331Z,1018.05
2018-09-29T05:32:16.321Z,1018.10
2018-09-29T05:33:16.315Z,1018.04
2018-09-29T05:34:16.316Z,1018.07
2018-09-29T05:35:16.280Z,1018.06
2018-09-29T05:36:16.277Z,1018.11
2018-09-29T05:37:16.263Z,1018.14
2018-09-29T05:38:16.290Z,1018.13
2018-09-29T05:39:16.268Z,1018.11
2018-09-29T05:40:16.228Z,1018.15
2018-09-29T05:41:16.221Z,1018.14
2018-09-29T05:42:16.200Z,1018.15
2018-09-29T05:43:16.195Z,1018.14
2018-09-29T05:44:16.202Z,1018.16
2018-09-29T05:45:16.173Z,1018.13
2018-09-29T05:46:16.165Z,1018.17
2018-09-29T05:47:16.143Z,1018.17
2018-09-29T05:48:16.183Z,1018.10
2018-09-29T05:49:16.146Z,1018.13
2018-09-29T05:50:16.116Z,1018.09
2018-09-29T05:51:16.166Z,1018.10
2018-09-29T05:52:16.091Z,1018.11
2018-09-29T05:53:16.082Z,1018.12
2018-09-29T05:54:16.085Z,1018.06
2018-09-29T05:55:16.058Z,1018.07
2018-09-29T05:56:16.048Z,1018.08
2018-09-29T05:57:16.037Z,1018.09
2018-09-29T05:58:16.605Z,1018.05
2018-09-29T05:59:16.036Z,1018.13
2018-09-29T06:00:16.004Z,1018.12
2018-09-29T06:01:15.991Z,1018.13
2018-09-29T06:02:15.979Z,1018.02
2018-09-29T06:03:15.967Z,1018.14
2018-09-29T06:04:15.971Z,1018.05
2018-09-29T06:05:15.963Z,1018.07
2018-09-29T06:06:15.925Z,1018.08
2018-09-29T06:07:16.047Z,1018.08
2018-09-29T06:08:15.936Z,1018.06
2018-09-29T06:09:15.933Z,1018.07
2018-09-29T06:10:15.882Z,1018.13
2018-09-29T06:11:15.876Z,1018.11
2018-09-29T06:12:15.861Z,1018.18
2018-09-29T06:13:15.957Z,1018.13
2018-09-29T06:14:15.860Z,1018.18
2018-09-29T06:15:15.828Z,1018.21
2018-09-29T06:16:15.812Z,1018.25
2018-09-29T06:17:15.799Z,1018.23
2018-09-29T06:18:15.799Z,1018.21
2018-09-29T06:19:16.105Z,1018.23
2018-09-29T06:20:15.773Z,1018.23
2018-09-29T06:21:15.753Z,1018.25
2018-09-29T06:22:15.750Z,1018.26
2018-09-29T06:23:15.803Z,1018.28
2018-09-29T06:24:15.747Z,1018.31
2018-09-29T06:25:15.708Z,1018.35
2018-09-29T06:26:15.827Z,1018.36
2018-09-29T06:27:15.719Z,1018.33
2018-09-29T06:28:15.674Z,1018.33
2018-09-29T06:29:15.686Z,1018.32
2018-09-29T06:30:15.657Z,1018.31
2018-09-29T06:31:15.682Z,1018.34
2018-09-29T06:32:15.630Z,1018.36
2018-09-29T06:33:15.651Z,1018.36
2018-09-29T06:34:15.683Z,1018.34
2018-09-29T06:35:15.594Z,1018.36
2018-09-29T06:36:15.585Z,1018.34
2018-09-29T06:37:15.576Z,1018.36
2018-09-29T06:38:15.565Z,1018.40
2018-09-29T06:39:15.566Z,1018.32
2018-09-29T06:40:15.541Z,1018.42
2018-09-29T06:41:15.529Z,1018.38
2018-09-29T06:42:15.512Z,1018.36
2018-09-29T06:43:15.535Z,1018.34
2018-09-29T06:44:15.491Z,1018.30
2018-09-29T06:45:15.477Z,1018.34
2018-09-29T06:46:15.480Z,1018.34
2018-09-29T06:47:15.456Z,1018.31
2018-09-29T06:48:15.445Z,1018.34
2018-09-29T06:49:15.450Z,1018.31
2018-09-29T06:50:15.419Z,1018.31
2018-09-29T06:51:15.405Z,1018.33
2018-09-29T06:52:15.400Z,1018.32
2018-09-29T06:53:15.384Z,1018.31
2018-09-29T06:54:15.394Z,1018.36
2018-09-29T06:55:15.360Z,1018.41
2018-09-29T06:56:15.351Z,1018.34
2018-09-29T06:57:15.343Z,1018.34
2018-09-29T06:58:15.323Z,1018.32
2018-09-29T06:59:15.332Z,1018.34
2018-09-29T07:00:15.303Z,1018.33
2018-09-29T07:01:15.412Z,1018.29
2018-09-29T07:02:15.285Z,1018.29
2018-09-29T07:03:15.309Z,1018.30
2018-09-29T07:04:15.282Z,1018.23
2018-09-29T07:05:15.341Z,1018.24
2018-09-29T07:06:15.229Z,1018.18
2018-09-29T07:07:15.222Z,1018.23
2018-09-29T07:08:15.280Z,1018.20
2018-09-29T07:09:15.223Z,1018.25
2018-09-29T07:10:15.211Z,1018.28
2018-09-29T07:11:15.174Z,1018.29
2018-09-29T07:12:15.158Z,1018.37
2018-09-29T07:13:15.149Z,1018.31
2018-09-29T07:14:15.157Z,1018.34
2018-09-29T07:15:15.125Z,1018.28
2018-09-29T07:16:15.119Z,1018.31
2018-09-29T07:17:15.106Z,1018.29
2018-09-29T07:18:15.096Z,1018.30
2018-09-29T07:19:15.103Z,1018.29
2018-09-29T07:20:15.074Z,1018.28
2018-09-29T07:21:15.053Z,1018.29
2018-09-29T07:22:15.051Z,1018.33
2018-09-29T07:23:15.028Z,1018.31
2018-09-29T07:24:15.061Z,1018.29
2018-09-29T07:25:15.006Z,1018.24
2018-09-29T07:26:15.003Z,1018.33
2018-09-29T07:27:14.985Z,1018.29
2018-09-29T07:28:14.976Z,1018.25
2018-09-29T07:29:14.984Z,1018.34
2018-09-29T07:30:14.952Z,1018.32
2018-09-29T07:31:14.952Z,1018.30
2018-09-29T07:32:14.934Z,1018.31
2018-09-29T07:33:14.912Z,1018.33
2018-09-29T07:34:14.925Z,1018.38
2018-09-29T07:35:14.895Z,1018.41
2018-09-29T07:36:14.883Z,1018.39
2018-09-29T07:37:14.873Z,1018.41
2018-09-29T07:38:14.851Z,1018.45
2018-09-29T07:39:14.865Z,1018.49
2018-09-29T07:40:14.834Z,1018.49
2018-09-29T07:41:14.825Z,1018.51
2018-09-29T07:42:14.806Z,1018.52
2018-09-29T07:43:14.792Z,1018.45
2018-09-29T07:44:14.811Z,1018.50
2018-09-29T07:45:14.774Z,1018.58
2018-09-29T07:46:14.759Z,1018.56
2018-09-29T07:47:14.745Z,1018.60
2018-09-29T07:48:14.787Z,1018.56
2018-09-29T07:49:14.801Z,1018.57
2018-09-29T07:50:14.719Z,1018.53
2018-09-29T07:51:14.703Z,1018.51
2018-09-29T07:52:14.693Z,1018.45
2018-09-29T07:53:14.678Z,1018.50
2018-09-29T07:54:14.692Z,1018.54
2018-09-29T07:55:14.665Z,1018.57
2018-09-29T07:56:14.669Z,1018.54
2018-09-29T07:57:14.630Z,1018.58
2018-09-29T07:58:14.621Z,1018.52
2018-09-29T07:59:14.627Z,1018.52
2018-09-29T08:00:14.602Z,1018.55
2018-09-29T08:01:14.588Z,1018.54
2018-09-29T08:02:14.577Z,1018.48
2018-09-29T08:03:14.565Z,1018.51
2018-09-29T08:04:14.566Z,1018.55
2018-09-29T08:05:14.541Z,1018.46
2018-09-29T08:06:14.531Z,1018.54
2018-09-29T08:07:14.515Z,1018.57
2018-09-29T08:08:14.502Z,1018.54
2018-09-29T08:09:14.516Z,1018.59
2018-09-29T08:10:14.480Z,1018.54
2018-09-29T08:11:14.471Z,1018.59
2018-09-29T08:12:14.462Z,1018.55
2018-09-29T08:13:14.445Z,1018.52
2018-09-29T08:14:14.455Z,1018.53
2018-09-29T08:15:14.594Z,1018.51
2018-09-29T08:16:14.435Z,1018.49
2018-09-29T08:17:14.495Z,1018.51
2018-09-29T08:18:14.449Z,1018.52
2018-09-29T08:19:14.399Z,1018.58
2018-09-29T08:20:14.909Z,1018.55
2018-09-29T08:21:14.550Z,1018.62
2018-09-29T08:22:14.370Z,1018.59
2018-09-29T08:23:14.323Z,1018.57
2018-09-29T08:24:14.807Z,1018.55
2018-09-29T08:25:14.318Z,1018.57
2018-09-29T08:26:14.448Z,1018.61
2018-09-29T08:27:14.535Z,1018.54
2018-09-29T08:28:14.305Z,1018.55
2018-09-29T08:29:14.313Z,1018.53
2018-09-29T08:30:14.275Z,1018.54
2018-09-29T08:31:14.228Z,1018.51
2018-09-29T08:32:14.233Z,1018.54
2018-09-29T08:33:14.205Z,1018.53
2018-09-29T08:34:14.222Z,1018.54
2018-09-29T08:35:14.189Z,1018.52
2018-09-29T08:36:14.169Z,1018.56
2018-09-29T08:37:14.164Z,1018.59
2018-09-29T08:38:14.150Z,1018.56
2018-09-29T08:39:14.158Z,1018.57
2018-09-29T08:40:14.132Z,1018.59
2018-09-29T08:41:14.115Z,1018.54
2018-09-29T08:42:14.116Z,1018.59
2018-09-29T08:43:14.095Z,1018.63
2018-09-29T08:44:14.106Z,1018.67
2018-09-29T08:45:14.070Z,1018.62
2018-09-29T08:46:14.056Z,1018.72
2018-09-29T08:47:14.045Z,1018.71
2018-09-29T08:48:14.032Z,1018.70
2018-09-29T08:49:14.050Z,1018.65
2018-09-29T08:50:14.006Z,1018.62
2018-09-29T08:51:13.993Z,1018.59
2018-09-29T08:52:13.990Z,1018.55
2018-09-29T08:53:14.035Z,1018.59
2018-09-29T08:54:13.989Z,1018.55
2018-09-29T08:55:13.953Z,1018.52
2018-09-29T08:56:13.944Z,1018.53
2018-09-29T08:57:14.155Z,1018.52
2018-09-29T08:58:14.660Z,1018.56
2018-09-29T08:59:13.933Z,1018.58
2018-09-29T09:00:13.890Z,1018.54
2018-09-29T09:01:13.887Z,1018.21
2018-09-29T09:02:13.960Z,1018.52
2018-09-29T09:03:13.862Z,1018.55
2018-09-29T09:04:13.867Z,1018.52
2018-09-29T09:05:13.837Z,1018.51
2018-09-29T09:06:13.824Z,1018.49
2018-09-29T09:07:13.819Z,1018.66
2018-09-29T09:08:13.798Z,1018.37
2018-09-29T09:09:13.819Z,1018.48
2018-09-29T09:10:13.775Z,1018.52
2018-09-29T09:11:13.768Z,1018.52
2018-09-29T09:12:13.756Z,1018.48
2018-09-29T09:13:13.746Z,1018.27
2018-09-29T09:14:13.753Z,1018.59
2018-09-29T09:15:13.727Z,1018.54
2018-09-29T09:16:13.708Z,1018.60
2018-09-29T09:17:13.692Z,1018.59
2018-09-29T09:18:13.691Z,1018.57
2018-09-29T09:19:13.702Z,1018.59
2018-09-29T09:20:13.659Z,1018.52
2018-09-29T09:21:13.654Z,1018.66
2018-09-29T09:22:13.643Z,1018.64
2018-09-29T09:23:13.674Z,1018.10
2018-09-29T09:24:13.740Z,1018.11
2018-09-29T09:25:13.604Z,1018.61
2018-09-29T09:26:13.595Z,1018.11
2018-09-29T09:27:13.583Z,1018.62
2018-09-29T09:28:13.576Z,1018.70
2018-09-29T09:29:13.584Z,1018.65
2018-09-29T09:30:13.563Z,1018.61
2018-09-29T09:31:13.544Z,1018.62
2018-09-29T09:32:13.524Z,1018.54
2018-09-29T09:33:13.524Z,1018.51
2018-09-29T09:34:13.523Z,1018.54
2018-09-29T09:35:13.498Z,1018.57
2018-09-29T09:36:13.483Z,1018.59
2018-09-29T09:37:13.474Z,1018.57
2018-09-29T09:38:13.459Z,1018.51
2018-09-29T09:39:13.472Z,1018.56
2018-09-29T09:40:13.435Z,1018.53
2018-09-29T09:41:13.436Z,1018.47
2018-09-29T09:42:13.474Z,1018.45
2018-09-29T09:43:13.401Z,1018.44
2018-09-29T09:44:13.425Z,1018.43
2018-09-29T09:45:13.386Z,1018.39
2018-09-29T09:46:13.371Z,1018.41
2018-09-29T09:47:13.362Z,1018.42
2018-09-29T09:48:13.348Z,1018.44
2018-09-29T09:49:13.364Z,1018.44
2018-09-29T09:50:13.328Z,1018.38
2018-09-29T09:51:13.322Z,1018.36
2018-09-29T09:52:13.304Z,1018.35
2018-09-29T09:53:13.303Z,1018.30
2018-09-29T09:54:13.281Z,1018.34
2018-09-29T09:55:13.298Z,1018.36
2018-09-29T09:56:13.270Z,1018.31
2018-09-29T09:57:13.255Z,1018.27
2018-09-29T09:58:13.241Z,1018.23
2018-09-29T09:59:13.240Z,1018.19
2018-09-29T10:00:13.239Z,1018.19
2018-09-29T10:01:13.215Z,1018.30
2018-09-29T10:02:13.201Z,1018.24
2018-09-29T10:03:13.192Z,1018.20
2018-09-29T10:04:13.173Z,1018.16
2018-09-29T10:05:13.202Z,1018.13
2018-09-29T10:06:13.151Z,1018.17
2018-09-29T10:07:13.146Z,1018.17
2018-09-29T10:08:13.131Z,1018.09
2018-09-29T10:09:13.125Z,1018.12
2018-09-29T10:10:13.111Z,1018.13
2018-09-29T10:11:13.128Z,1018.14
2018-09-29T10:12:13.091Z,1018.12
2018-09-29T10:13:13.085Z,1018.07
2018-09-29T10:14:13.062Z,1018.03
2018-09-29T10:15:13.060Z,1017.99
2018-09-29T10:16:13.079Z,1018.05
2018-09-29T10:17:13.037Z,1018.00
2018-09-29T10:18:13.029Z,1018.01
2018-09-29T10:19:13.014Z,1017.98
2018-09-29T10:20:13.001Z,1017.98
2018-09-29T10:21:13.017Z,1017.97
2018-09-29T10:22:12.979Z,1017.92
2018-09-29T10:23:12.977Z,1017.91
2018-09-29T10:24:12.955Z,1017.93
2018-09-29T10:25:12.952Z,1017.99
2018-09-29T10:26:12.956Z,1017.93
2018-09-29T10:27:12.927Z,1017.87
2018-09-29T10:28:12.914Z,1017.86
2018-09-29T10:29:12.906Z,1017.88
2018-09-29T10:30:12.899Z,1017.84
2018-09-29T10:31:12.904Z,1017.83
2018-09-29T10:32:12.867Z,1017.78
2018-09-29T10:33:12.860Z,1017.76
2018-09-29T10:34:12.852Z,1017.74
2018-09-29T10:35:12.844Z,1017.75
2018-09-29T10:36:12.875Z,1017.73
2018-09-29T10:37:12.824Z,1017.70
2018-09-29T10:38:12.804Z,1017.75
2018-09-29T10:39:12.793Z,1017.77
2018-09-29T10:40:12.792Z,1017.72
2018-09-29T10:41:12.801Z,1017.71
2018-09-29T10:42:12.766Z,1017.71
2018-09-29T10:43:12.755Z,1017.71
2018-09-29T10:44:12.804Z,1017.79
2018-09-29T10:45:12.734Z,1017.73
2018-09-29T10:46:12.745Z,1017.72
2018-09-29T10:47:12.715Z,1017.70
2018-09-29T10:48:12.706Z,1017.68
2018-09-29T10:49:12.692Z,1017.69
2018-09-29T10:50:12.678Z,1017.73
2018-09-29T10:51:12.697Z,1017.64
2018-09-29T10:52:12.658Z,1017.66
2018-09-29T10:53:12.648Z,1017.69
2018-09-29T10:54:12.642Z,1017.65
2018-09-29T10:55:12.631Z,1017.66
2018-09-29T10:56:12.633Z,1017.62
2018-09-29T10:57:12.604Z,1017.56
2018-09-29T10:58:12.597Z,1017.56
2018-09-29T10:59:12.723Z,1017.52
2018-09-29T11:00:12.577Z,1017.57
2018-09-29T11:01:12.588Z,1017.52
2018-09-29T11:02:12.554Z,1017.49
2018-09-29T11:03:12.546Z,1017.44
2018-09-29T11:04:12.528Z,1017.48
2018-09-29T11:05:12.528Z,1017.51
2018-09-29T11:06:12.533Z,1017.52
2018-09-29T11:07:12.496Z,1017.49
2018-09-29T11:08:12.490Z,1017.43
2018-09-29T11:09:12.495Z,1017.48
2018-09-29T11:10:12.477Z,1017.47
2018-09-29T11:11:12.478Z,1017.45
2018-09-29T11:12:12.451Z,1017.41
2018-09-29T11:13:12.430Z,1017.40
2018-09-29T11:14:12.451Z,1017.35
2018-09-29T11:15:12.419Z,1017.36
2018-09-29T11:16:12.433Z,1017.35
2018-09-29T11:17:12.402Z,1017.35
2018-09-29T11:18:12.382Z,1017.32
2018-09-29T11:19:12.372Z,1017.33
2018-09-29T11:20:12.360Z,1017.31
2018-09-29T11:21:12.376Z,1017.31
2018-09-29T11:22:12.344Z,1017.27
2018-09-29T11:23:12.322Z,1017.24
2018-09-29T11:24:12.322Z,1017.23
2018-09-29T11:25:12.310Z,1017.21
2018-09-29T11:26:12.314Z,1017.17
2018-09-29T11:27:12.288Z,1017.15
2018-09-29T11:28:12.311Z,1017.11
2018-09-29T11:29:12.268Z,1017.06
2018-09-29T11:30:12.248Z,1017.04
2018-09-29T11:31:12.258Z,1017.03
2018-09-29T11:32:12.227Z,1017.03
2018-09-29T11:33:12.220Z,1016.97
2018-09-29T11:34:12.205Z,1016.95
2018-09-29T11:35:12.194Z,1016.94
2018-09-29T11:36:12.209Z,1016.89
2018-09-29T11:37:12.177Z,1016.82
2018-09-29T11:38:12.166Z,1016.84
2018-09-29T11:39:12.189Z,1016.84
2018-09-29T11:40:12.137Z,1016.83
2018-09-29T11:41:12.151Z,1016.72
2018-09-29T11:42:12.121Z,1016.71
2018-09-29T11:43:12.111Z,1016.68
2018-09-29T11:44:12.094Z,1016.71
2018-09-29T11:45:12.081Z,1016.65
2018-09-29T11:46:12.102Z,1016.63
2018-09-29T11:47:12.069Z,1016.63
2018-09-29T11:48:12.055Z,1016.62
2018-09-29T11:49:12.041Z,1016.57
2018-09-29T11:50:12.070Z,1016.53
2018-09-29T11:51:12.045Z,1016.47
2018-09-29T11:52:12.006Z,1016.49
2018-09-29T11:53:12.001Z,1016.48
2018-09-29T11:54:11.987Z,1016.44
2018-09-29T11:55:11.979Z,1016.39
2018-09-29T11:56:11.992Z,1016.40
2018-09-29T11:57:11.957Z,1016.41
2018-09-29T11:58:11.944Z,1016.35
2018-09-29T11:59:11.937Z,1016.32
2018-09-29T12:00:11.926Z,1016.05
2018-09-29T12:01:11.940Z,1016.27
2018-09-29T12:02:11.957Z,1016.25
2018-09-29T12:03:11.890Z,1016.25
2018-09-29T12:04:11.877Z,1016.15
2018-09-29T12:05:11.868Z,1016.10